Time;durP1;ratioP1;P1;durP2;ratioP2;P2;SDS_P1;SDS_P2;PMS_P1;PMS_P2;Temp;Humidity;BMP_temperature;BMP_pressure;BME280_temperature;BME280_humidity;BME280_pressure;Samples;Min_cycle;Max_cycle;Signal;HPM_P1;HPM_P2
2023/06/28 00:01:47;;;;;;;11.93;11.32;;;;;;;;;;4991864;28;20478;-66
2023/06/28 00:04:12;;;;;;;11.50;11.00;;;;;;;;;;4986985;28;20138;-66
2023/06/28 00:06:37;;;;;;;11.88;11.27;;;;;;;;;;4995766;28;20462;-66
2023/06/28 00:09:02;;;;;;;12.48;11.88;;;;;;;;;;4997121;28;20033;-65
2023/06/28 00:11:28;;;;;;;11.48;10.98;;;;;;;;;;4995790;28;20065;-65
2023/06/28 00:13:53;;;;;;;12.38;11.77;;;;;;;;;;4985739;28;20027;-65
2023/06/28 00:16:19;;;;;;;12.38;11.77;;;;;;;;;;4984648;28;20030;-65
2023/06/28 00:18:45;;;;;;;12.35;11.75;;;;;;;;;;4986550;28;20401;-65
2023/06/28 00:21:13;;;;;;;12.82;12.18;;;;;;;;;;4984649;28;20113;-65
2023/06/28 00:23:39;;;;;;;12.23;11.63;;;;;;;;;;4986225;28;20042;-65
2023/06/28 00:26:04;;;;;;;13.38;12.68;;;;;;;;;;4987510;28;20096;-64
2023/06/28 00:28:29;;;;;;;12.45;11.85;;;;;;;;;;4984215;28;20089;-65
2023/06/28 00:30:54;;;;;;;12.05;11.45;;;;;;;;;;4983810;28;20837;-65
2023/06/28 00:33:20;;;;;;;12.30;11.70;;;;;;;;;;4983452;28;20097;-65
2023/06/28 00:35:46;;;;;;;11.77;11.20;;;;;;;;;;4986406;28;20125;-65
2023/06/28 00:38:11;;;;;;;13.10;12.40;;;;;;;;;;4987542;28;20027;-65
2023/06/28 00:40:37;;;;;;;12.55;11.95;;;;;;;;;;4986035;28;20033;-65
2023/06/28 00:43:02;;;;;;;11.90;11.30;;;;;;;;;;4984471;28;20041;-65
2023/06/28 00:45:27;;;;;;;11.95;11.35;;;;;;;;;;4995025;28;20026;-65
2023/06/28 00:47:53;;;;;;;11.88;11.27;;;;;;;;;;4993332;28;20023;-66
2023/06/28 00:50:18;;;;;;;11.48;10.98;;;;;;;;;;4993040;28;20085;-66
2023/06/28 00:52:44;;;;;;;11.30;10.80;;;;;;;;;;4987502;28;20011;-64
2023/06/28 00:55:10;;;;;;;11.85;11.25;;;;;;;;;;4988875;28;20118;-66
2023/06/28 00:57:36;;;;;;;12.00;11.40;;;;;;;;;;4997207;28;20120;-66
2023/06/28 01:00:02;;;;;;;12.25;11.65;;;;;;;;;;4973893;28;20030;-65
2023/06/28 01:02:29;;;;;;;11.77;11.25;;;;;;;;;;4991358;28;20083;-65
2023/06/28 01:04:57;;;;;;;12.30;11.70;;;;;;;;;;4993646;28;20026;-65
2023/06/28 01:07:24;;;;;;;11.55;11.05;;;;;;;;;;4994427;28;20037;-65
2023/06/28 01:09:49;;;;;;;11.82;11.27;;;;;;;;;;4992894;28;20038;-66
2023/06/28 01:12:15;;;;;;;11.98;11.38;;;;;;;;;;4992509;28;20081;-65
2023/06/28 01:14:40;;;;;;;12.45;11.85;;;;;;;;;;4988381;28;20026;-65
2023/06/28 01:17:05;;;;;;;12.15;11.55;;;;;;;;;;4984813;28;20113;-65
2023/06/28 01:19:32;;;;;;;12.02;11.43;;;;;;;;;;4981297;28;20474;-66
2023/06/28 01:22:02;;;;;;;12.98;12.27;;;;;;;;;;4983944;28;20064;-65
2023/06/28 01:24:27;;;;;;;11.90;11.30;;;;;;;;;;4987584;28;20042;-65
2023/06/28 01:26:53;;;;;;;12.40;11.80;;;;;;;;;;4984588;28;20034;-65
2023/06/28 01:29:21;;;;;;;11.77;11.25;;;;;;;;;;4984593;28;20089;-65
2023/06/28 01:31:48;;;;;;;12.05;11.45;;;;;;;;;;4985730;28;20034;-65
2023/06/28 01:34:14;;;;;;;12.43;11.82;;;;;;;;;;4984022;28;20042;-65
2023/06/28 01:36:39;;;;;;;12.77;12.10;;;;;;;;;;4984523;28;20022;-65
2023/06/28 01:39:05;;;;;;;12.95;12.27;;;;;;;;;;4984602;28;20038;-65
2023/06/28 01:41:30;;;;;;;12.55;11.95;;;;;;;;;;4986462;28;20088;-64
2023/06/28 01:43:56;;;;;;;12.30;11.70;;;;;;;;;;4981650;28;20038;-64
2023/06/28 01:46:21;;;;;;;12.52;11.93;;;;;;;;;;4983140;28;20041;-65
2023/06/28 01:48:47;;;;;;;12.35;11.75;;;;;;;;;;4983495;28;20038;-65
2023/06/28 01:51:12;;;;;;;12.05;11.45;;;;;;;;;;4990142;28;20034;-65
2023/06/28 01:53:37;;;;;;;11.45;10.95;;;;;;;;;;4990477;28;20077;-65
2023/06/28 01:56:03;;;;;;;11.80;11.20;;;;;;;;;;5000003;28;20393;-65
2023/06/28 01:58:28;;;;;;;12.00;11.40;;;;;;;;;;5006479;28;20026;-65
2023/06/28 02:00:53;;;;;;;12.07;11.48;;;;;;;;;;4994131;28;20037;-65
2023/06/28 02:03:19;;;;;;;11.48;10.98;;;;;;;;;;4993707;28;20481;-65
2023/06/28 02:05:44;;;;;;;12.00;11.40;;;;;;;;;;4992164;28;20033;-65
2023/06/28 02:08:10;;;;;;;11.55;11.05;;;;;;;;;;4985756;28;20021;-66
2023/06/28 02:10:36;;;;;;;11.55;11.05;;;;;;;;;;4991991;28;20069;-65
2023/06/28 02:13:01;;;;;;;12.05;11.45;;;;;;;;;;4993913;28;20026;-66
2023/06/28 02:15:26;;;;;;;12.07;11.48;;;;;;;;;;4988835;28;20042;-64
2023/06/28 02:17:55;;;;;;;12.32;11.73;;;;;;;;;;4987507;28;20028;-66
2023/06/28 02:20:22;;;;;;;11.63;11.13;;;;;;;;;;4989299;28;20015;-65
2023/06/28 02:22:47;;;;;;;12.85;12.15;;;;;;;;;;4986000;28;20034;-66
2023/06/28 02:25:12;;;;;;;12.50;11.90;;;;;;;;;;4983425;28;22185;-65
2023/06/28 02:27:38;;;;;;;11.95;11.35;;;;;;;;;;4978699;28;20038;-65
2023/06/28 02:30:03;;;;;;;13.23;12.52;;;;;;;;;;4982452;28;20398;-66
2023/06/28 02:32:31;;;;;;;12.45;11.85;;;;;;;;;;4984446;28;20030;-66
2023/06/28 02:34:57;;;;;;;12.82;12.15;;;;;;;;;;4981577;28;20121;-66
2023/06/28 02:37:23;;;;;;;12.43;11.82;;;;;;;;;;4983448;28;20105;-66
2023/06/28 02:39:48;;;;;;;12.98;12.27;;;;;;;;;;4983475;28;20026;-66
2023/06/28 02:42:13;;;;;;;11.98;11.38;;;;;;;;;;4983693;28;20030;-66
2023/06/28 02:44:39;;;;;;;14.25;13.45;;;;;;;;;;4982724;28;20026;-65
2023/06/28 02:47:04;;;;;;;13.48;12.77;;;;;;;;;;4983169;28;20081;-64
2023/06/28 02:49:29;;;;;;;12.00;11.40;;;;;;;;;;4983017;28;20037;-65
2023/06/28 02:51:54;;;;;;;12.30;11.70;;;;;;;;;;4984931;28;20490;-66
2023/06/28 02:54:20;;;;;;;12.27;11.68;;;;;;;;;;4984402;28;20054;-66
2023/06/28 02:56:45;;;;;;;12.20;11.60;;;;;;;;;;4984145;28;20026;-65
2023/06/28 02:59:11;;;;;;;13.05;12.35;;;;;;;;;;4982399;28;20027;-65
2023/06/28 03:01:37;;;;;;;12.60;11.98;;;;;;;;;;4983366;28;20034;-65
2023/06/28 03:04:02;;;;;;;12.82;12.13;;;;;;;;;;4981962;28;20089;-65
2023/06/28 03:06:27;;;;;;;13.43;12.73;;;;;;;;;;4976315;28;20261;-65
2023/06/28 03:08:53;;;;;;;12.82;12.15;;;;;;;;;;4980828;28;20037;-64
2023/06/28 03:11:18;;;;;;;12.68;12.02;;;;;;;;;;4980295;28;20022;-64
2023/06/28 03:13:44;;;;;;;12.50;11.90;;;;;;;;;;4987173;28;20039;-64
2023/06/28 03:16:09;;;;;;;11.90;11.30;;;;;;;;;;4984932;28;20030;-64
2023/06/28 03:18:35;;;;;;;12.52;11.93;;;;;;;;;;4983126;28;20033;-65
2023/06/28 03:21:01;;;;;;;12.35;11.75;;;;;;;;;;4983506;28;20022;-65
2023/06/28 03:23:26;;;;;;;12.52;11.90;;;;;;;;;;4984119;28;20117;-65
2023/06/28 03:25:52;;;;;;;13.15;12.45;;;;;;;;;;4980846;28;20030;-65
2023/06/28 03:28:17;;;;;;;11.55;11.05;;;;;;;;;;4987072;28;20034;-66
2023/06/28 03:30:43;;;;;;;12.60;12.00;;;;;;;;;;4982818;28;20033;-66
2023/06/28 03:33:08;;;;;;;12.60;11.98;;;;;;;;;;4981628;28;20019;-66
2023/06/28 03:35:33;;;;;;;12.43;11.82;;;;;;;;;;4983644;28;20026;-66
2023/06/28 03:37:59;;;;;;;12.90;12.20;;;;;;;;;;4981753;28;20038;-66
2023/06/28 03:40:24;;;;;;;12.77;12.13;;;;;;;;;;4982545;28;20086;-65
2023/06/28 03:42:49;;;;;;;13.25;12.55;;;;;;;;;;4979884;28;20029;-66
2023/06/28 03:45:15;;;;;;;12.93;12.25;;;;;;;;;;4982058;28;20035;-65
2023/06/28 03:47:41;;;;;;;12.10;11.50;;;;;;;;;;4980228;28;20157;-66
2023/06/28 03:50:06;;;;;;;12.43;11.82;;;;;;;;;;4984943;28;20049;-65
2023/06/28 03:52:32;;;;;;;11.20;10.70;;;;;;;;;;4991823;28;20014;-66
2023/06/28 03:54:57;;;;;;;12.52;11.93;;;;;;;;;;4991712;28;20050;-67
2023/06/28 03:57:22;;;;;;;11.98;11.38;;;;;;;;;;4992212;28;20014;-66
2023/06/28 03:59:48;;;;;;;11.57;11.07;;;;;;;;;;4987388;28;20046;-67
2023/06/28 04:02:13;;;;;;;12.00;11.40;;;;;;;;;;4990992;28;20470;-67
2023/06/28 04:04:39;;;;;;;12.45;11.85;;;;;;;;;;4990040;28;20478;-67
2023/06/28 04:07:04;;;;;;;11.93;11.32;;;;;;;;;;4986093;28;20030;-67
2023/06/28 04:09:30;;;;;;;12.05;11.45;;;;;;;;;;4989581;28;20030;-66
2023/06/28 04:11:55;;;;;;;12.10;11.50;;;;;;;;;;4988878;28;20476;-67
2023/06/28 04:14:21;;;;;;;12.40;11.80;;;;;;;;;;4988850;28;20066;-67
2023/06/28 04:16:47;;;;;;;11.32;10.82;;;;;;;;;;4991849;28;20031;-67
2023/06/28 04:19:12;;;;;;;12.57;11.95;;;;;;;;;;4989721;28;20101;-67
2023/06/28 04:21:37;;;;;;;12.77;12.07;;;;;;;;;;4991443;28;20121;-67
2023/06/28 04:24:03;;;;;;;12.85;12.15;;;;;;;;;;4990396;28;20363;-66
2023/06/28 04:26:28;;;;;;;12.05;11.45;;;;;;;;;;4991552;28;20077;-67
2023/06/28 04:28:54;;;;;;;12.05;11.45;;;;;;;;;;4991630;28;20520;-65
2023/06/28 04:31:19;;;;;;;11.45;10.95;;;;;;;;;;4989157;28;20038;-67
2023/06/28 04:33:46;;;;;;;13.27;12.57;;;;;;;;;;4985890;28;20014;-67
2023/06/28 04:36:11;;;;;;;13.98;13.18;;;;;;;;;;4978298;28;20085;-65
2023/06/28 04:38:36;;;;;;;13.02;12.32;;;;;;;;;;4979929;28;20442;-66
2023/06/28 04:41:03;;;;;;;13.10;12.40;;;;;;;;;;4980176;28;20115;-67
2023/06/28 04:43:28;;;;;;;13.02;12.32;;;;;;;;;;4982588;28;20030;-66
2023/06/28 04:45:55;;;;;;;12.80;12.15;;;;;;;;;;4981440;28;20045;-66
2023/06/28 04:48:21;;;;;;;12.63;11.95;;;;;;;;;;4980695;28;20018;-66
2023/06/28 04:50:47;;;;;;;12.13;11.52;;;;;;;;;;4981552;28;20407;-67
2023/06/28 04:53:13;;;;;;;12.25;11.65;;;;;;;;;;4980469;28;20062;-66
2023/06/28 04:55:38;;;;;;;13.13;12.43;;;;;;;;;;4984414;28;20035;-65
2023/06/28 04:58:05;;;;;;;13.25;12.55;;;;;;;;;;4986395;28;20057;-66
2023/06/28 05:00:31;;;;;;;13.32;12.63;;;;;;;;;;4984743;28;20382;-66
2023/06/28 05:02:57;;;;;;;12.38;11.77;;;;;;;;;;4985928;28;20083;-65
2023/06/28 05:05:26;;;;;;;12.10;11.50;;;;;;;;;;4983326;28;20393;-65
2023/06/28 05:07:52;;;;;;;12.50;11.90;;;;;;;;;;4981073;28;20023;-65
2023/06/28 05:10:17;;;;;;;13.30;12.60;;;;;;;;;;4985135;28;20030;-66
2023/06/28 05:12:43;;;;;;;12.80;12.10;;;;;;;;;;4985898;28;20065;-65
2023/06/28 05:15:08;;;;;;;13.02;12.32;;;;;;;;;;4984439;28;20018;-66
2023/06/28 05:17:34;;;;;;;12.68;12.07;;;;;;;;;;4990075;28;20018;-66
2023/06/28 05:19:59;;;;;;;14.60;13.77;;;;;;;;;;4983375;28;20478;-66
2023/06/28 05:22:26;;;;;;;12.88;12.23;;;;;;;;;;4986196;28;20149;-65
2023/06/28 05:24:51;;;;;;;13.45;12.75;;;;;;;;;;4985091;28;20034;-66
2023/06/28 05:27:16;;;;;;;11.60;11.10;;;;;;;;;;4983635;28;20038;-66
2023/06/28 05:29:41;;;;;;;12.95;12.25;;;;;;;;;;4984103;28;20051;-66
2023/06/28 05:32:07;;;;;;;12.70;12.10;;;;;;;;;;4985916;28;20080;-66
2023/06/28 05:34:32;;;;;;;12.52;11.93;;;;;;;;;;4984957;28;20054;-66
2023/06/28 05:36:57;;;;;;;12.35;11.75;;;;;;;;;;4986556;28;20197;-64
2023/06/28 05:39:23;;;;;;;12.32;11.73;;;;;;;;;;4984715;28;20482;-67
2023/06/28 05:41:48;;;;;;;13.25;12.55;;;;;;;;;;4979760;28;20053;-62
2023/06/28 05:44:16;;;;;;;13.15;12.45;;;;;;;;;;4980652;28;20104;-62
2023/06/28 05:46:42;;;;;;;13.02;12.32;;;;;;;;;;4979634;28;20085;-62
2023/06/28 05:49:07;;;;;;;13.45;12.75;;;;;;;;;;4980190;28;20739;-62
2023/06/28 05:51:34;;;;;;;13.20;12.50;;;;;;;;;;4980629;28;20441;-62
2023/06/28 05:53:59;;;;;;;12.48;11.88;;;;;;;;;;4983982;28;20050;-61
2023/06/28 05:56:24;;;;;;;13.35;12.65;;;;;;;;;;4988927;28;20139;-62
2023/06/28 05:58:50;;;;;;;12.05;11.45;;;;;;;;;;4988631;28;20396;-62
2023/06/28 06:01:15;;;;;;;12.10;11.50;;;;;;;;;;4986020;28;20022;-61
2023/06/28 06:03:40;;;;;;;12.68;12.07;;;;;;;;;;4986703;28;20103;-62
2023/06/28 06:06:05;;;;;;;13.48;12.77;;;;;;;;;;4980124;28;20027;-61
2023/06/28 06:08:31;;;;;;;12.20;11.60;;;;;;;;;;4989583;28;20019;-61
2023/06/28 06:10:56;;;;;;;12.18;11.57;;;;;;;;;;4992910;28;20323;-61
2023/06/28 06:13:21;;;;;;;12.00;11.40;;;;;;;;;;4985511;28;20030;-61
2023/06/28 06:15:47;;;;;;;11.88;11.38;;;;;;;;;;4990822;28;20489;-61
2023/06/28 06:18:12;;;;;;;12.85;12.25;;;;;;;;;;4989074;28;20079;-61
2023/06/28 06:20:37;;;;;;;12.57;11.98;;;;;;;;;;4993536;28;20014;-62
2023/06/28 06:23:02;;;;;;;13.20;12.60;;;;;;;;;;4979397;28;20402;-62
2023/06/28 06:25:28;;;;;;;12.88;12.27;;;;;;;;;;4979750;28;20117;-61
2023/06/28 06:27:53;;;;;;;12.50;11.90;;;;;;;;;;4981502;28;20494;-62
2023/06/28 06:30:18;;;;;;;12.60;12.00;;;;;;;;;;4984934;28;20058;-61
2023/06/28 06:32:44;;;;;;;12.20;11.60;;;;;;;;;;4982771;28;20022;-61
2023/06/28 06:35:09;;;;;;;12.48;11.88;;;;;;;;;;4981678;28;20489;-62
2023/06/28 06:37:34;;;;;;;12.75;12.15;;;;;;;;;;4981666;28;20545;-62
2023/06/28 06:40:00;;;;;;;13.70;13.00;;;;;;;;;;4979029;28;20030;-61
2023/06/28 06:42:25;;;;;;;12.48;11.88;;;;;;;;;;4985429;28;20314;-66
2023/06/28 06:44:50;;;;;;;12.45;11.85;;;;;;;;;;4985313;28;20030;-62
2023/06/28 06:47:16;;;;;;;12.30;11.70;;;;;;;;;;4986477;28;20027;-61
2023/06/28 06:49:41;;;;;;;12.60;12.00;;;;;;;;;;4980880;28;20094;-62
2023/06/28 06:52:06;;;;;;;12.40;11.80;;;;;;;;;;4981043;28;20046;-61
2023/06/28 06:54:32;;;;;;;12.40;11.80;;;;;;;;;;4985690;28;20026;-63
2023/06/28 06:57:02;;;;;;;13.40;12.73;;;;;;;;;;4982421;28;20080;-62
2023/06/28 06:59:27;;;;;;;14.07;13.38;;;;;;;;;;4972538;28;20030;-62
2023/06/28 07:01:53;;;;;;;14.48;13.77;;;;;;;;;;4967936;28;20034;-65
2023/06/28 07:04:19;;;;;;;14.80;14.00;;;;;;;;;;4971516;28;20039;-66
2023/06/28 07:06:46;;;;;;;15.18;14.38;;;;;;;;;;4969884;28;20037;-67
2023/06/28 07:09:12;;;;;;;13.68;12.98;;;;;;;;;;4970951;28;20018;-64
2023/06/28 07:11:37;;;;;;;13.65;12.95;;;;;;;;;;4970380;28;20022;-64
2023/06/28 07:14:03;;;;;;;14.20;13.50;;;;;;;;;;4970092;28;20022;-65
2023/06/28 07:16:28;;;;;;;13.85;13.15;;;;;;;;;;4970160;28;20899;-64
2023/06/28 07:18:54;;;;;;;12.70;12.10;;;;;;;;;;4974830;28;20030;-64
2023/06/28 07:21:19;;;;;;;13.90;13.20;;;;;;;;;;4972810;28;20030;-65
2023/06/28 07:23:46;;;;;;;13.85;13.15;;;;;;;;;;4971923;28;20058;-65
2023/06/28 07:26:11;;;;;;;14.55;13.85;;;;;;;;;;4970467;28;20038;-64
2023/06/28 07:28:36;;;;;;;14.05;13.35;;;;;;;;;;4969780;28;20073;-63
2023/06/28 07:31:02;;;;;;;13.05;12.45;;;;;;;;;;4970960;28;20026;-64
2023/06/28 07:33:27;;;;;;;13.45;12.80;;;;;;;;;;4969554;28;20046;-63
2023/06/28 07:35:52;;;;;;;13.65;12.95;;;;;;;;;;4974008;28;20030;-64
2023/06/28 07:38:19;;;;;;;12.75;12.15;;;;;;;;;;4980020;28;20225;-65
2023/06/28 07:40:47;;;;;;;12.52;11.93;;;;;;;;;;4983858;28;20093;-63
2023/06/28 07:43:13;;;;;;;13.73;13.02;;;;;;;;;;4982122;28;20110;-62
2023/06/28 07:45:39;;;;;;;13.88;13.18;;;;;;;;;;4983400;28;20034;-63
2023/06/28 07:48:04;;;;;;;13.23;12.63;;;;;;;;;;4977053;28;20069;-64
2023/06/28 07:50:30;;;;;;;12.80;12.20;;;;;;;;;;4980542;28;20019;-64
2023/06/28 07:52:55;;;;;;;12.75;12.15;;;;;;;;;;4981625;28;20105;-64
2023/06/28 07:55:20;;;;;;;13.02;12.43;;;;;;;;;;4981829;28;20097;-64
2023/06/28 07:57:46;;;;;;;13.05;12.45;;;;;;;;;;4975648;28;20431;-62
2023/06/28 08:00:11;;;;;;;13.20;12.60;;;;;;;;;;4980644;28;20097;-62
2023/06/28 08:02:36;;;;;;;13.65;12.95;;;;;;;;;;4980766;28;20105;-62
2023/06/28 08:05:02;;;;;;;13.45;12.80;;;;;;;;;;4981654;28;20030;-63
2023/06/28 08:07:27;;;;;;;12.88;12.27;;;;;;;;;;4978506;28;20445;-62
2023/06/28 08:09:53;;;;;;;12.82;12.23;;;;;;;;;;4980396;28;20061;-63
2023/06/28 08:12:18;;;;;;;13.82;13.13;;;;;;;;;;4979585;28;20018;-63
2023/06/28 08:14:43;;;;;;;13.60;12.90;;;;;;;;;;4984028;28;20030;-62
2023/06/28 08:17:09;;;;;;;13.43;12.73;;;;;;;;;;4980815;28;20049;-62
2023/06/28 08:19:35;;;;;;;13.10;12.50;;;;;;;;;;4983667;28;20034;-62
2023/06/28 08:22:00;;;;;;;12.93;12.32;;;;;;;;;;4982808;28;20023;-61
2023/06/28 08:24:27;;;;;;;12.68;12.07;;;;;;;;;;4979717;28;20045;-62
2023/06/28 08:26:52;;;;;;;13.10;12.50;;;;;;;;;;4980048;28;20023;-61
2023/06/28 08:29:17;;;;;;;11.95;11.43;;;;;;;;;;4985090;28;20039;-61
2023/06/28 08:31:43;;;;;;;12.30;11.70;;;;;;;;;;4986152;28;20025;-61
2023/06/28 08:34:08;;;;;;;12.93;12.32;;;;;;;;;;4986212;28;20034;-61
2023/06/28 08:36:33;;;;;;;13.15;12.52;;;;;;;;;;4990616;28;20486;-61
2023/06/28 08:38:59;;;;;;;12.20;11.60;;;;;;;;;;4992876;28;20468;-61
2023/06/28 08:41:24;;;;;;;12.60;12.00;;;;;;;;;;4987576;28;20014;-62
2023/06/28 08:43:53;;;;;;;15.13;14.32;;;;;;;;;;4978853;28;20030;-61
2023/06/28 08:46:18;;;;;;;13.43;12.73;;;;;;;;;;4978652;28;20112;-61
2023/06/28 08:48:45;;;;;;;13.25;12.55;;;;;;;;;;4980517;28;20077;-62
2023/06/28 08:51:11;;;;;;;13.43;12.73;;;;;;;;;;4979033;28;20054;-63
2023/06/28 08:53:36;;;;;;;12.68;12.07;;;;;;;;;;4985934;28;20031;-62
2023/06/28 08:56:02;;;;;;;12.88;12.27;;;;;;;;;;4981939;28;20029;-63
2023/06/28 08:58:28;;;;;;;12.93;12.32;;;;;;;;;;4984533;28;20030;-65
2023/06/28 09:00:53;;;;;;;12.82;12.23;;;;;;;;;;4982750;28;20022;-62
2023/06/28 09:03:19;;;;;;;12.82;12.23;;;;;;;;;;4986791;28;20434;-61
2023/06/28 09:05:44;;;;;;;12.98;12.38;;;;;;;;;;4985526;28;20030;-63
2023/06/28 09:08:10;;;;;;;13.50;12.80;;;;;;;;;;4984792;28;20161;-63
2023/06/28 09:10:35;;;;;;;14.23;13.52;;;;;;;;;;4984032;28;20493;-65
2023/06/28 09:13:01;;;;;;;15.02;14.23;;;;;;;;;;4984379;28;20116;-65
2023/06/28 09:15:27;;;;;;;13.20;12.52;;;;;;;;;;4983361;28;20213;-62
2023/06/28 09:17:53;;;;;;;12.32;11.73;;;;;;;;;;4981200;28;20026;-62
2023/06/28 09:20:20;;;;;;;13.10;12.50;;;;;;;;;;4984960;28;20371;-64
2023/06/28 09:22:58;;;;;;;13.55;12.85;;;;;;;;;;4986919;28;20026;-61
2023/06/28 09:25:24;;;;;;;12.88;12.27;;;;;;;;;;4986848;28;20022;-60
2023/06/28 09:27:49;;;;;;;13.45;12.75;;;;;;;;;;4985085;28;20444;-62
2023/06/28 09:30:21;;;;;;;13.35;12.65;;;;;;;;;;4986614;28;20050;-61
2023/06/28 09:32:50;;;;;;;11.95;11.38;;;;;;;;;;4987179;28;20023;-63
2023/06/28 09:35:16;;;;;;;13.63;12.93;;;;;;;;;;4986092;28;20474;-62
2023/06/28 09:37:41;;;;;;;12.73;12.13;;;;;;;;;;4988449;28;20037;-62
2023/06/28 09:40:07;;;;;;;12.88;12.27;;;;;;;;;;4984014;28;20026;-62
2023/06/28 09:42:42;;;;;;;12.73;12.13;;;;;;;;;;4978696;28;20023;-63
2023/06/28 09:45:08;;;;;;;12.93;12.32;;;;;;;;;;4984765;28;20026;-63
2023/06/28 09:47:33;;;;;;;13.27;12.65;;;;;;;;;;4986779;28;20121;-63
2023/06/28 09:50:00;;;;;;;13.13;12.52;;;;;;;;;;4980980;28;20034;-63
2023/06/28 09:52:26;;;;;;;13.38;12.68;;;;;;;;;;4982508;28;20018;-64
2023/06/28 09:54:51;;;;;;;12.52;11.93;;;;;;;;;;4986707;28;20218;-63
2023/06/28 09:57:17;;;;;;;13.30;12.65;;;;;;;;;;4979668;28;20027;-62
2023/06/28 09:59:43;;;;;;;13.52;12.82;;;;;;;;;;4979447;28;20038;-62
2023/06/28 10:02:08;;;;;;;12.65;12.05;;;;;;;;;;4985086;28;20050;-63
2023/06/28 10:04:34;;;;;;;14.15;13.45;;;;;;;;;;4975642;28;20539;-63
2023/06/28 10:07:00;;;;;;;13.52;12.82;;;;;;;;;;4983626;28;20030;-63
2023/06/28 10:09:29;;;;;;;13.75;13.05;;;;;;;;;;4985364;28;20033;-63
2023/06/28 10:11:56;;;;;;;12.82;12.23;;;;;;;;;;4985999;28;20021;-61
2023/06/28 10:14:23;;;;;;;12.65;12.05;;;;;;;;;;4982812;28;20046;-63
2023/06/28 10:16:49;;;;;;;12.68;12.07;;;;;;;;;;4983544;28;20037;-63
2023/06/28 10:19:14;;;;;;;12.90;12.30;;;;;;;;;;4981488;28;20109;-62
2023/06/28 10:21:39;;;;;;;12.98;12.38;;;;;;;;;;4986441;28;20025;-63
2023/06/28 10:24:06;;;;;;;13.38;12.75;;;;;;;;;;4986112;28;20512;-63
2023/06/28 10:26:31;;;;;;;13.07;12.48;;;;;;;;;;4984756;28;20031;-62
2023/06/28 10:28:57;;;;;;;13.02;12.43;;;;;;;;;;4982679;28;20097;-61
2023/06/28 10:31:23;;;;;;;12.20;11.60;;;;;;;;;;4989084;28;20046;-62
2023/06/28 10:33:49;;;;;;;12.25;11.65;;;;;;;;;;4989443;28;20025;-63
2023/06/28 10:36:15;;;;;;;12.45;11.85;;;;;;;;;;4981617;28;20505;-62
2023/06/28 10:38:43;;;;;;;12.85;12.25;;;;;;;;;;4983812;28;20034;-63
2023/06/28 10:41:12;;;;;;;12.73;12.13;;;;;;;;;;4982516;28;20026;-63
2023/06/28 10:43:38;;;;;;;12.80;12.20;;;;;;;;;;4988404;28;20030;-63
2023/06/28 10:46:19;;;;;;;13.40;12.77;;;;;;;;;;4982092;28;20027;-63
2023/06/28 10:48:45;;;;;;;12.45;11.85;;;;;;;;;;4992088;28;20023;-62
2023/06/28 10:51:13;;;;;;;13.15;12.55;;;;;;;;;;4990463;28;20249;-62
2023/06/28 10:53:50;;;;;;;12.82;12.23;;;;;;;;;;4987678;28;20433;-62
2023/06/28 10:56:17;;;;;;;13.00;12.40;;;;;;;;;;4985086;28;20033;-62
2023/06/28 10:58:43;;;;;;;12.93;12.32;;;;;;;;;;4986943;28;20503;-61
2023/06/28 11:01:10;;;;;;;13.98;13.27;;;;;;;;;;4983373;28;20062;-64
2023/06/28 11:03:43;;;;;;;13.18;12.57;;;;;;;;;;4983343;28;20442;-63
2023/06/28 11:06:12;;;;;;;12.90;12.30;;;;;;;;;;4983669;28;20088;-63
2023/06/28 11:08:41;;;;;;;12.90;12.30;;;;;;;;;;4980650;28;20031;-62
2023/06/28 11:11:08;;;;;;;12.90;12.30;;;;;;;;;;4983257;28;20026;-63
2023/06/28 11:13:39;;;;;;;13.10;12.50;;;;;;;;;;4982125;28;20121;-65
2023/06/28 11:16:21;;;;;;;13.10;12.50;;;;;;;;;;4981800;28;20580;-64
2023/06/28 11:18:47;;;;;;;12.43;11.82;;;;;;;;;;4978905;28;20050;-63
2023/06/28 11:21:15;;;;;;;12.30;11.70;;;;;;;;;;4981922;28;20034;-63
2023/06/28 11:23:41;;;;;;;12.65;12.05;;;;;;;;;;4983661;28;20041;-62
2023/06/28 11:26:10;;;;;;;13.38;12.75;;;;;;;;;;4984664;28;20026;-62
2023/06/28 11:28:36;;;;;;;13.00;12.40;;;;;;;;;;4984219;28;20372;-63
2023/06/28 11:31:11;;;;;;;12.40;11.80;;;;;;;;;;4981860;28;20093;-63
2023/06/28 11:33:37;;;;;;;12.93;12.32;;;;;;;;;;4978519;28;20023;-63
2023/06/28 11:36:03;;;;;;;12.68;12.07;;;;;;;;;;4983468;28;20022;-63
2023/06/28 11:38:28;;;;;;;11.80;11.30;;;;;;;;;;4981371;28;20367;-63
2023/06/28 11:40:54;;;;;;;12.93;12.32;;;;;;;;;;4983069;28;20081;-62
2023/06/28 11:43:21;;;;;;;12.40;11.80;;;;;;;;;;4978169;28;20050;-63
2023/06/28 11:45:48;;;;;;;14.05;13.35;;;;;;;;;;4980052;28;20034;-63
2023/06/28 11:48:14;;;;;;;14.27;13.57;;;;;;;;;;4966670;28;20030;-62
2023/06/28 11:50:39;;;;;;;13.35;12.75;;;;;;;;;;4976650;28;20806;-61
2023/06/28 11:53:05;;;;;;;13.30;12.70;;;;;;;;;;4982369;28;20026;-61
2023/06/28 11:55:30;;;;;;;12.93;12.32;;;;;;;;;;4980214;28;20034;-63
2023/06/28 11:57:56;;;;;;;12.85;12.25;;;;;;;;;;4984044;28;20053;-61
2023/06/28 12:00:21;;;;;;;12.88;12.27;;;;;;;;;;4979657;28;20026;-62
2023/06/28 12:02:47;;;;;;;12.65;12.05;;;;;;;;;;4984137;28;20105;-61
2023/06/28 12:05:15;;;;;;;12.80;12.20;;;;;;;;;;4980419;28;20026;-64
2023/06/28 12:07:40;;;;;;;12.77;12.18;;;;;;;;;;4985797;28;20065;-64
2023/06/28 12:10:06;;;;;;;13.35;12.75;;;;;;;;;;4984181;28;20050;-62
2023/06/28 12:12:33;;;;;;;12.70;12.10;;;;;;;;;;4987277;28;20418;-63
2023/06/28 12:14:58;;;;;;;12.63;12.02;;;;;;;;;;4981431;28;20113;-64
2023/06/28 12:17:24;;;;;;;12.90;12.30;;;;;;;;;;4990389;28;20489;-64
2023/06/28 12:19:49;;;;;;;13.38;12.73;;;;;;;;;;4990160;28;20037;-64
2023/06/28 12:22:14;;;;;;;12.13;11.52;;;;;;;;;;4991792;28;20026;-64
2023/06/28 12:24:40;;;;;;;11.83;11.33;;;;;;;;;;4984165;28;20474;-65
2023/06/28 12:27:07;;;;;;;12.65;12.05;;;;;;;;;;4985583;28;20288;-64
2023/06/28 12:29:35;;;;;;;12.20;11.60;;;;;;;;;;4983230;28;20054;-64
2023/06/28 12:32:04;;;;;;;12.50;11.90;;;;;;;;;;4992785;28;20049;-64
2023/06/28 12:34:33;;;;;;;14.05;13.35;;;;;;;;;;4975840;28;20569;-63
2023/06/28 12:37:00;;;;;;;12.80;12.20;;;;;;;;;;4980785;28;20050;-63
2023/06/28 12:39:26;;;;;;;12.63;12.02;;;;;;;;;;4987502;28;20064;-63
2023/06/28 12:42:08;;;;;;;13.02;12.43;;;;;;;;;;4982630;28;20037;-63
2023/06/28 12:44:52;;;;;;;13.23;12.63;;;;;;;;;;4982473;28;20023;-63
2023/06/28 12:47:18;;;;;;;;;;;;;;;;;;4983714;28;20060;-62
2023/06/28 12:49:44;;;;;;;12.43;11.83;;;;;;;;;;4989910;28;20361;-62
2023/06/28 12:52:10;;;;;;;13.80;13.10;;;;;;;;;;4984388;28;20030;-62
2023/06/28 12:54:35;;;;;;;13.10;12.50;;;;;;;;;;4990028;28;20025;-63
2023/06/28 12:57:03;;;;;;;13.10;12.50;;;;;;;;;;4984726;28;20647;-64
2023/06/28 12:59:28;;;;;;;13.23;12.63;;;;;;;;;;4987346;28;20061;-61
2023/06/28 13:01:53;;;;;;;13.18;12.57;;;;;;;;;;4987009;28;20199;-62
2023/06/28 13:04:19;;;;;;;13.50;12.80;;;;;;;;;;4986544;28;20409;-63
2023/06/28 13:06:44;;;;;;;13.02;12.43;;;;;;;;;;4987715;28;20026;-62
2023/06/28 13:09:09;;;;;;;13.68;12.98;;;;;;;;;;4986093;28;20014;-62
2023/06/28 13:11:36;;;;;;;13.52;12.82;;;;;;;;;;4982514;28;20077;-63
2023/06/28 13:14:01;;;;;;;14.13;13.43;;;;;;;;;;4988153;28;20109;-62
2023/06/28 13:16:27;;;;;;;13.85;13.15;;;;;;;;;;4981324;28;20117;-63
2023/06/28 13:18:52;;;;;;;13.15;12.55;;;;;;;;;;4988031;28;20142;-62
2023/06/28 13:21:17;;;;;;;13.75;13.05;;;;;;;;;;4978266;28;20061;-62
2023/06/28 13:23:44;;;;;;;14.30;13.60;;;;;;;;;;4982869;28;20393;-62
2023/06/28 13:26:10;;;;;;;14.30;13.57;;;;;;;;;;4984886;28;20037;-62
2023/06/28 13:28:35;;;;;;;14.10;13.40;;;;;;;;;;4984635;28;20034;-64
2023/06/28 13:31:00;;;;;;;14.23;13.52;;;;;;;;;;4983503;28;20033;-64
2023/06/28 13:33:26;;;;;;;14.20;13.50;;;;;;;;;;4978378;28;20010;-64
2023/06/28 13:35:51;;;;;;;14.07;13.38;;;;;;;;;;4984431;28;20137;-62
2023/06/28 13:38:16;;;;;;;13.93;13.23;;;;;;;;;;4984634;28;20041;-59
2023/06/28 13:40:42;;;;;;;13.30;12.60;;;;;;;;;;4984914;28;20042;-61
2023/06/28 13:43:08;;;;;;;14.85;14.05;;;;;;;;;;4982764;28;20113;-61
2023/06/28 13:45:33;;;;;;;14.80;14.00;;;;;;;;;;4985318;28;20084;-62
2023/06/28 13:47:59;;;;;;;14.55;13.75;;;;;;;;;;4986480;28;20031;-61
2023/06/28 13:50:24;;;;;;;14.40;13.60;;;;;;;;;;4988868;28;20018;-61
2023/06/28 13:52:49;;;;;;;13.68;12.98;;;;;;;;;;4981511;28;20113;-60
2023/06/28 13:55:14;;;;;;;13.68;12.98;;;;;;;;;;4983795;28;20029;-61
2023/06/28 13:57:40;;;;;;;14.27;13.50;;;;;;;;;;4982490;28;20034;-60
2023/06/28 14:00:05;;;;;;;14.67;13.87;;;;;;;;;;4980630;28;20036;-61
2023/06/28 14:02:31;;;;;;;12.43;11.82;;;;;;;;;;4979285;28;20271;-60
2023/06/28 14:04:57;;;;;;;13.38;12.68;;;;;;;;;;4986434;28;20031;-63
2023/06/28 14:07:22;;;;;;;13.45;12.75;;;;;;;;;;4979855;28;20081;-62
2023/06/28 14:09:48;;;;;;;14.55;13.75;;;;;;;;;;4983017;28;20483;-61
2023/06/28 14:12:13;;;;;;;13.82;13.13;;;;;;;;;;4984697;28;20627;-61